createdAt,value
2019-03-16T00:02:24.281Z,9.48
2019-03-16T00:05:11.051Z,9.36
2019-03-16T00:08:01.024Z,9.35
2019-03-16T00:10:31.679Z,9.18
2019-03-16T00:13:02.368Z,8.93
2019-03-16T00:15:33.153Z,8.77
2019-03-16T00:18:05.048Z,8.84
2019-03-16T00:20:35.798Z,8.97
2019-03-16T00:23:09.934Z,8.96
2019-03-16T00:25:40.625Z,9.07
2019-03-16T00:28:11.309Z,8.99
2019-03-16T00:30:42.009Z,9.11
2019-03-16T00:33:17.587Z,9.16
2019-03-16T00:35:48.223Z,9.06
2019-03-16T00:38:23.472Z,9.01
2019-03-16T00:40:54.268Z,8.95
2019-03-16T00:43:24.874Z,9.16
2019-03-16T00:45:56.496Z,9.21
2019-03-16T00:48:27.187Z,9.23
2019-03-16T00:50:57.670Z,9.17
2019-03-16T00:53:28.403Z,9.30
2019-03-16T00:55:59.348Z,9.14
2019-03-16T00:58:29.944Z,9.29
2019-03-16T01:01:00.656Z,9.29
2019-03-16T01:03:31.319Z,9.14
2019-03-16T01:06:01.900Z,9.23
2019-03-16T01:08:38.865Z,9.34
2019-03-16T01:11:18.625Z,9.27
2019-03-16T01:14:08.805Z,9.26
2019-03-16T01:16:42.953Z,9.28
2019-03-16T01:19:13.636Z,9.20
2019-03-16T01:21:44.466Z,9.20
2019-03-16T01:24:21.545Z,9.14
2019-03-16T01:26:52.356Z,9.17
2019-03-16T01:29:22.952Z,9.18
2019-03-16T01:31:53.531Z,9.18
2019-03-16T01:34:24.096Z,9.17
2019-03-16T01:36:54.609Z,9.18
2019-03-16T01:39:25.339Z,9.16
2019-03-16T01:41:57.336Z,9.07
2019-03-16T01:44:28.380Z,9.14
2019-03-16T01:46:59.111Z,9.03
2019-03-16T01:49:42.039Z,9.03
2019-03-16T01:52:18.163Z,9.10
2019-03-16T01:55:01.255Z,9.03
2019-03-16T01:57:31.952Z,9.10
2019-03-16T02:00:18.951Z,9.08
2019-03-16T02:02:55.646Z,8.84
2019-03-16T02:05:21.994Z,9.01
2019-03-16T02:07:52.724Z,8.92
2019-03-16T02:10:32.557Z,8.93
2019-03-16T02:13:18.403Z,8.85
2019-03-16T02:15:49.000Z,8.89
2019-03-16T02:18:37.957Z,8.87
2019-03-16T02:21:08.566Z,8.85
2019-03-16T02:23:44.849Z,8.83
2019-03-16T02:26:15.855Z,8.74
2019-03-16T02:28:46.596Z,8.91
2019-03-16T02:31:20.533Z,8.79
2019-03-16T02:34:02.535Z,8.78
2019-03-16T02:36:43.263Z,8.60
2019-03-16T02:39:15.329Z,8.70
2019-03-16T02:41:46.270Z,8.57
2019-03-16T02:44:17.583Z,8.51
2019-03-16T02:46:48.245Z,8.46
2019-03-16T02:49:26.345Z,8.50
2019-03-16T02:51:56.974Z,8.56
2019-03-16T02:54:27.687Z,8.39
2019-03-16T02:56:58.292Z,8.50
2019-03-16T02:59:34.514Z,8.53
2019-03-16T03:02:05.325Z,8.38
2019-03-16T03:04:36.354Z,8.40
2019-03-16T03:07:07.042Z,8.50
2019-03-16T03:09:37.754Z,8.51
2019-03-16T03:12:08.357Z,8.31
2019-03-16T03:14:38.977Z,8.45
2019-03-16T03:17:09.601Z,8.61
2019-03-16T03:19:43.342Z,8.43
2019-03-16T03:22:14.991Z,8.49
2019-03-16T03:24:45.597Z,8.42
2019-03-16T03:27:16.200Z,8.52
2019-03-16T03:29:57.248Z,8.47
2019-03-16T03:32:32.610Z,8.51
2019-03-16T03:35:03.417Z,8.26
2019-03-16T03:37:34.081Z,8.36
2019-03-16T03:40:05.386Z,8.34
2019-03-16T03:42:36.039Z,8.45
2019-03-16T03:45:06.939Z,8.42
2019-03-16T03:47:37.712Z,8.31
2019-03-16T03:50:13.566Z,8.39
2019-03-16T03:52:44.300Z,8.38
2019-03-16T03:55:31.059Z,8.27
2019-03-16T03:58:01.722Z,8.23
2019-03-16T04:00:32.390Z,8.10
2019-03-16T04:03:12.530Z,8.13
2019-03-16T04:05:43.210Z,8.09
2019-03-16T04:08:15.947Z,8.25
2019-03-16T04:10:50.616Z,8.19
2019-03-16T04:13:44.637Z,8.13
2019-03-16T04:16:15.426Z,7.92
2019-03-16T04:18:51.287Z,7.90
2019-03-16T04:21:25.310Z,7.75
2019-03-16T04:24:00.104Z,7.79
2019-03-16T04:26:30.842Z,7.70
2019-03-16T04:29:01.652Z,7.57
2019-03-16T04:31:34.316Z,7.67
2019-03-16T04:34:05.033Z,7.67
2019-03-16T04:36:35.711Z,7.75
2019-03-16T04:39:18.406Z,7.68
2019-03-16T04:41:57.092Z,7.81
2019-03-16T04:44:27.726Z,7.77
2019-03-16T04:46:58.469Z,7.72
2019-03-16T04:49:29.091Z,7.77
2019-03-16T04:51:59.960Z,7.83
2019-03-16T04:54:30.634Z,7.88
2019-03-16T04:57:01.215Z,7.77
2019-03-16T04:59:36.186Z,7.79
2019-03-16T05:02:06.844Z,7.92
2019-03-16T05:04:42.527Z,7.89
2019-03-16T05:07:30.853Z,7.93
2019-03-16T05:10:01.541Z,8.04
2019-03-16T05:12:32.329Z,7.87
2019-03-16T05:15:03.000Z,7.92
2019-03-16T05:17:34.640Z,7.96
2019-03-16T05:20:05.667Z,7.94
2019-03-16T05:22:41.543Z,7.96
2019-03-16T05:25:16.812Z,7.92
2019-03-16T05:27:51.535Z,7.93
2019-03-16T05:30:23.154Z,7.97
2019-03-16T05:32:53.741Z,7.90
2019-03-16T05:35:28.071Z,7.83
2019-03-16T05:37:58.731Z,7.82
2019-03-16T05:40:29.414Z,7.91
2019-03-16T05:43:00.074Z,7.93
2019-03-16T05:45:30.705Z,7.82
2019-03-16T05:48:03.569Z,7.80
2019-03-16T05:50:38.978Z,7.74
2019-03-16T05:53:09.652Z,7.72
2019-03-16T05:55:41.248Z,7.80
2019-03-16T05:58:11.851Z,7.78
2019-03-16T06:00:42.505Z,7.76
2019-03-16T06:03:23.574Z,7.69
2019-03-16T06:06:01.541Z,7.72
2019-03-16T06:08:36.306Z,7.67
2019-03-16T06:11:19.898Z,7.59
2019-03-16T06:13:50.645Z,7.53
2019-03-16T06:16:21.322Z,7.54
2019-03-16T06:18:52.747Z,7.65
2019-03-16T06:21:23.456Z,7.65
2019-03-16T06:23:54.047Z,7.68
2019-03-16T06:26:24.557Z,7.57
2019-03-16T06:28:55.165Z,7.70
2019-03-16T06:32:00.113Z,7.70
2019-03-16T06:34:30.764Z,7.77
2019-03-16T06:37:01.431Z,7.79
2019-03-16T06:39:32.013Z,7.79
2019-03-16T06:42:02.708Z,7.62
2019-03-16T06:44:33.268Z,7.62
2019-03-16T06:47:08.076Z,7.65
2019-03-16T06:49:44.480Z,7.63
2019-03-16T06:52:15.073Z,7.58
2019-03-16T06:54:45.768Z,7.62
2019-03-16T06:57:16.380Z,7.54
2019-03-16T06:59:47.038Z,7.43
2019-03-16T07:02:17.683Z,7.41
2019-03-16T07:05:37.229Z,7.25
2019-03-16T07:07:56.400Z,7.34
2019-03-16T07:10:26.966Z,7.40
2019-03-16T07:13:04.747Z,7.48
2019-03-16T07:15:36.433Z,7.55
2019-03-16T07:18:10.839Z,7.57
2019-03-16T07:20:42.428Z,7.49
2019-03-16T07:23:15.287Z,7.41
2019-03-16T07:25:46.018Z,7.54
2019-03-16T07:28:38.161Z,7.50
2019-03-16T07:31:10.376Z,7.39
2019-03-16T07:33:40.969Z,7.46
2019-03-16T07:36:11.732Z,7.50
2019-03-16T07:38:58.971Z,7.64
2019-03-16T07:41:29.631Z,7.86
2019-03-16T07:44:11.258Z,7.73
2019-03-16T07:47:03.035Z,7.78
2019-03-16T07:49:33.635Z,7.80
2019-03-16T07:52:04.339Z,8.00
2019-03-16T07:55:05.079Z,7.99
2019-03-16T07:57:40.596Z,8.07
2019-03-16T08:00:08.209Z,8.24
2019-03-16T08:02:44.001Z,8.42
2019-03-16T08:05:19.234Z,8.67
2019-03-16T08:07:50.139Z,8.81
2019-03-16T08:10:30.050Z,8.96
2019-03-16T08:13:04.092Z,9.07
2019-03-16T08:15:34.631Z,9.19
2019-03-16T08:18:07.800Z,9.31
2019-03-16T08:20:44.672Z,9.37
2019-03-16T08:23:16.344Z,9.40
2019-03-16T08:25:47.071Z,9.40
2019-03-16T08:28:17.783Z,9.43
2019-03-16T08:30:48.519Z,9.46
2019-03-16T08:33:20.237Z,9.51
2019-03-16T08:36:01.056Z,9.54
2019-03-16T08:38:35.314Z,9.56
2019-03-16T08:41:05.995Z,9.57
2019-03-16T08:43:36.673Z,9.52
2019-03-16T08:46:08.375Z,9.52
2019-03-16T08:48:58.027Z,9.50
2019-03-16T08:51:28.723Z,9.50
2019-03-16T08:53:59.349Z,9.53
2019-03-16T08:56:30.039Z,9.58
2019-03-16T08:59:00.836Z,9.50
2019-03-16T09:01:31.595Z,9.57
2019-03-16T09:04:12.188Z,9.57
2019-03-16T09:06:47.217Z,9.51
2019-03-16T09:09:25.276Z,9.55
2019-03-16T09:11:58.185Z,9.54
2019-03-16T09:14:35.141Z,9.63
2019-03-16T09:17:08.780Z,9.62
2019-03-16T09:19:40.298Z,9.72
2019-03-16T09:22:11.030Z,9.75
2019-03-16T09:24:41.812Z,9.85
2019-03-16T09:27:12.506Z,9.98
2019-03-16T09:29:43.210Z,10.32
2019-03-16T09:32:14.975Z,10.33
2019-03-16T09:34:45.603Z,10.56
2019-03-16T09:37:16.220Z,10.34
2019-03-16T09:39:58.478Z,10.22
2019-03-16T09:42:31.060Z,10.23
2019-03-16T09:45:01.649Z,10.27
2019-03-16T09:47:32.292Z,10.21
2019-03-16T09:50:03.977Z,10.19
2019-03-16T09:52:38.831Z,10.19
2019-03-16T09:55:09.537Z,10.18
2019-03-16T09:57:40.372Z,10.22
2019-03-16T10:00:22.450Z,10.20
2019-03-16T10:02:53.038Z,10.20
2019-03-16T10:05:24.823Z,10.20
2019-03-16T10:07:55.588Z,10.15
2019-03-16T10:10:26.282Z,10.22
2019-03-16T10:12:56.969Z,10.28
2019-03-16T10:15:27.582Z,10.27
2019-03-16T10:18:02.452Z,10.22
2019-03-16T10:20:34.153Z,10.21
2019-03-16T10:23:04.806Z,10.21
2019-03-16T10:25:35.528Z,10.24
2019-03-16T10:28:16.192Z,10.29
2019-03-16T10:30:46.941Z,10.35
2019-03-16T10:33:17.611Z,10.40
2019-03-16T10:35:48.128Z,10.46
2019-03-16T10:38:18.749Z,10.50
2019-03-16T10:40:49.338Z,10.53
2019-03-16T10:43:22.061Z,10.61
2019-03-16T10:45:52.664Z,10.62
2019-03-16T10:48:23.494Z,10.71
2019-03-16T10:50:54.168Z,10.72
2019-03-16T10:53:24.767Z,10.78
2019-03-16T10:55:55.410Z,10.85
2019-03-16T10:58:26.077Z,10.83
2019-03-16T11:01:10.791Z,10.83
2019-03-16T11:03:41.467Z,10.94
2019-03-16T11:06:12.048Z,10.94
2019-03-16T11:08:42.706Z,10.95
2019-03-16T11:11:13.329Z,10.94
2019-03-16T11:13:44.012Z,10.90
2019-03-16T11:16:16.228Z,10.89
2019-03-16T11:18:53.640Z,10.87
2019-03-16T11:21:27.408Z,10.94
2019-03-16T11:23:57.903Z,10.92
2019-03-16T11:26:28.555Z,10.83
2019-03-16T11:29:08.978Z,10.81
2019-03-16T11:31:35.284Z,10.78
2019-03-16T11:34:06.584Z,10.85
2019-03-16T11:36:37.326Z,10.77
2019-03-16T11:39:09.110Z,10.85
2019-03-16T11:41:39.709Z,10.80
2019-03-16T11:44:10.317Z,10.84
2019-03-16T11:46:40.889Z,10.84
2019-03-16T11:49:11.583Z,10.86
2019-03-16T11:51:42.216Z,10.88
2019-03-16T11:54:12.970Z,10.84
2019-03-16T11:56:43.577Z,10.90
2019-03-16T11:59:23.223Z,10.85
2019-03-16T12:02:05.122Z,10.85
2019-03-16T12:04:29.397Z,10.85
2019-03-16T12:07:09.271Z,10.81
2019-03-16T12:09:52.395Z,10.72
2019-03-16T12:12:24.101Z,10.72
2019-03-16T12:14:55.820Z,10.63
2019-03-16T12:17:26.577Z,10.61
2019-03-16T12:19:57.306Z,10.59
2019-03-16T12:22:27.991Z,10.54
2019-03-16T12:25:00.708Z,10.59
2019-03-16T12:27:31.356Z,10.60
2019-03-16T12:30:01.953Z,10.64
2019-03-16T12:32:48.085Z,10.67
2019-03-16T12:35:18.704Z,10.64
2019-03-16T12:37:49.290Z,10.61
2019-03-16T12:40:19.896Z,10.64
2019-03-16T12:42:52.784Z,10.65
2019-03-16T12:45:23.563Z,10.63
2019-03-16T12:47:54.285Z,10.62
2019-03-16T12:50:25.191Z,10.64
2019-03-16T12:52:56.925Z,10.71
2019-03-16T12:55:27.588Z,10.75
2019-03-16T12:58:00.582Z,10.61
2019-03-16T13:00:39.605Z,10.61
2019-03-16T13:03:11.297Z,10.55
2019-03-16T13:05:42.072Z,10.52
2019-03-16T13:08:12.810Z,10.52
2019-03-16T13:10:50.563Z,10.58
2019-03-16T13:13:21.415Z,10.50
2019-03-16T13:15:52.148Z,10.50
2019-03-16T13:18:39.204Z,10.49
2019-03-16T13:21:11.082Z,10.61
2019-03-16T13:23:42.877Z,10.53
2019-03-16T13:26:13.712Z,10.63
2019-03-16T13:28:47.932Z,10.67
2019-03-16T13:31:18.733Z,10.64
2019-03-16T13:33:49.454Z,10.67
2019-03-16T13:36:29.354Z,10.75
2019-03-16T13:39:07.410Z,10.73
2019-03-16T13:41:38.093Z,10.75
2019-03-16T13:44:08.800Z,10.79
2019-03-16T13:46:56.698Z,10.84
2019-03-16T13:49:27.340Z,10.85
2019-03-16T13:52:03.483Z,10.79
2019-03-16T13:54:35.347Z,10.76
2019-03-16T13:57:06.098Z,10.76
2019-03-16T13:59:37.395Z,10.78
2019-03-16T14:02:08.155Z,11.12
2019-03-16T14:04:44.394Z,11.09
2019-03-16T14:07:17.155Z,11.06
2019-03-16T14:09:49.912Z,11.05
2019-03-16T14:12:23.737Z,10.92
2019-03-16T14:14:55.901Z,11.09
2019-03-16T14:17:36.055Z,11.10
2019-03-16T14:20:13.947Z,11.11
2019-03-16T14:22:45.612Z,11.03
2019-03-16T14:25:16.463Z,10.96
2019-03-16T14:27:47.172Z,10.95
2019-03-16T14:30:29.539Z,10.98
2019-03-16T14:32:51.508Z,10.93
2019-03-16T14:35:24.260Z,10.84
2019-03-16T14:37:55.182Z,10.87
2019-03-16T14:40:28.793Z,10.80
2019-03-16T14:42:59.589Z,10.74
2019-03-16T14:45:30.714Z,10.79
2019-03-16T14:48:08.025Z,10.78
2019-03-16T14:50:40.785Z,10.85
2019-03-16T14:53:12.520Z,10.90
2019-03-16T14:55:43.243Z,10.78
2019-03-16T14:58:13.958Z,10.80
2019-03-16T15:00:50.364Z,10.73
2019-03-16T15:03:21.003Z,10.76
2019-03-16T15:05:51.765Z,10.78
2019-03-16T15:08:24.827Z,10.78
2019-03-16T15:11:03.742Z,10.69
2019-03-16T15:13:44.529Z,10.71
2019-03-16T15:16:26.420Z,10.74
2019-03-16T15:18:59.378Z,10.80
2019-03-16T15:21:30.699Z,10.68
2019-03-16T15:24:01.732Z,10.77
2019-03-16T15:26:36.932Z,10.77
2019-03-16T15:29:07.682Z,10.80
2019-03-16T15:31:40.427Z,10.81
2019-03-16T15:34:11.139Z,10.84
2019-03-16T15:36:42.926Z,10.86
2019-03-16T15:39:13.673Z,10.86
2019-03-16T15:41:44.314Z,10.92
2019-03-16T15:44:20.965Z,11.02
2019-03-16T15:46:51.637Z,10.98
2019-03-16T15:49:22.348Z,11.00
2019-03-16T15:51:53.181Z,10.99
2019-03-16T15:54:23.937Z,10.96
2019-03-16T15:56:57.784Z,10.96
2019-03-16T15:59:30.509Z,10.94
2019-03-16T16:02:13.641Z,10.99
2019-03-16T16:04:50.292Z,11.00
2019-03-16T16:07:20.994Z,11.01
2019-03-16T16:09:52.891Z,10.92
2019-03-16T16:12:23.589Z,10.97
2019-03-16T16:15:03.972Z,10.99
2019-03-16T16:17:34.750Z,10.96
2019-03-16T16:20:05.893Z,11.04
2019-03-16T16:22:39.768Z,10.92
2019-03-16T16:25:10.592Z,10.88
2019-03-16T16:27:43.394Z,10.92
2019-03-16T16:30:25.545Z,10.86
2019-03-16T16:32:59.347Z,10.98
2019-03-16T16:35:30.269Z,10.94
2019-03-16T16:38:13.529Z,10.92
2019-03-16T16:40:45.280Z,10.95
2019-03-16T16:43:15.947Z,10.87
2019-03-16T16:45:46.969Z,10.87
2019-03-16T16:48:19.651Z,10.86
2019-03-16T16:50:50.433Z,10.97
2019-03-16T16:53:31.454Z,10.88
2019-03-16T16:56:02.082Z,10.87
2019-03-16T16:58:41.768Z,10.86
2019-03-16T17:01:12.655Z,10.78
2019-03-16T17:03:43.336Z,10.77
2019-03-16T17:06:32.147Z,10.68
2019-03-16T17:09:08.484Z,10.71
2019-03-16T17:11:45.110Z,10.73
2019-03-16T17:14:23.337Z,10.69
2019-03-16T17:17:01.341Z,10.69
2019-03-16T17:19:32.080Z,10.69
2019-03-16T17:22:02.971Z,10.67
2019-03-16T17:24:33.740Z,10.69
2019-03-16T17:27:04.479Z,10.76
2019-03-16T17:29:47.658Z,10.69
2019-03-16T17:32:23.580Z,10.72
2019-03-16T17:34:54.236Z,10.74
2019-03-16T17:37:25.017Z,10.74
2019-03-16T17:39:55.754Z,10.73
2019-03-16T17:42:26.450Z,10.70
2019-03-16T17:45:00.755Z,10.76
2019-03-16T17:47:31.506Z,10.66
2019-03-16T17:50:09.975Z,10.68
2019-03-16T17:52:40.809Z,10.67
2019-03-16T17:55:12.644Z,10.60
2019-03-16T17:57:52.753Z,10.66
2019-03-16T18:00:25.536Z,10.62
2019-03-16T18:03:08.379Z,10.58
2019-03-16T18:05:39.106Z,10.56
2019-03-16T18:08:09.880Z,10.56
2019-03-16T18:10:40.689Z,10.55
2019-03-16T18:13:11.421Z,10.62
2019-03-16T18:15:42.231Z,10.59
2019-03-16T18:18:12.957Z,10.51
2019-03-16T18:20:51.418Z,10.53
2019-03-16T18:23:22.156Z,10.57
2019-03-16T18:25:53.303Z,10.57
2019-03-16T18:28:24.230Z,10.51
2019-03-16T18:30:55.059Z,10.47
2019-03-16T18:33:25.803Z,10.45
2019-03-16T18:35:56.630Z,10.43
2019-03-16T18:38:30.221Z,10.64
2019-03-16T18:41:01.053Z,10.62
2019-03-16T18:43:31.828Z,10.44
2019-03-16T18:46:03.629Z,10.46
2019-03-16T18:48:35.349Z,10.49
2019-03-16T18:51:06.110Z,10.45
2019-03-16T18:53:50.879Z,10.42
2019-03-16T18:56:21.652Z,10.38
2019-03-16T18:58:52.423Z,10.40
2019-03-16T19:01:26.589Z,10.33
2019-03-16T19:03:57.245Z,10.34
2019-03-16T19:06:39.801Z,10.35
2019-03-16T19:09:12.645Z,10.42
2019-03-16T19:11:43.463Z,10.35
2019-03-16T19:14:14.118Z,10.35
2019-03-16T19:17:06.273Z,10.38
2019-03-16T19:19:36.930Z,10.33
2019-03-16T19:22:11.520Z,10.29
2019-03-16T19:24:47.819Z,10.38
2019-03-16T19:27:19.463Z,10.37
2019-03-16T19:29:57.050Z,10.39
2019-03-16T19:32:33.892Z,10.38
2019-03-16T19:35:15.120Z,10.32
2019-03-16T19:37:55.829Z,10.30
2019-03-16T19:40:26.625Z,10.37
2019-03-16T19:42:57.463Z,10.34
2019-03-16T19:45:33.602Z,10.30
2019-03-16T19:48:04.288Z,10.34
2019-03-16T19:50:35.921Z,10.31
2019-03-16T19:53:17.635Z,10.31
2019-03-16T19:55:49.247Z,10.34
2019-03-16T19:58:23.194Z,10.33
2019-03-16T20:00:53.874Z,10.30
2019-03-16T20:03:26.526Z,10.34
2019-03-16T20:05:58.318Z,10.38
2019-03-16T20:08:32.990Z,10.37
2019-03-16T20:11:06.905Z,10.35
2019-03-16T20:13:36.422Z,10.31
2019-03-16T20:16:10.450Z,10.32
2019-03-16T20:18:44.697Z,10.33
2019-03-16T20:21:15.371Z,10.30
2019-03-16T20:23:45.997Z,10.30
2019-03-16T20:26:24.363Z,10.29
2019-03-16T20:28:55.992Z,10.29
2019-03-16T20:31:32.488Z,10.21
2019-03-16T20:34:03.164Z,10.25
2019-03-16T20:36:43.423Z,10.24
2019-03-16T20:39:14.183Z,10.23
2019-03-16T20:41:46.067Z,10.24
2019-03-16T20:44:16.651Z,10.26
2019-03-16T20:46:48.250Z,10.24
2019-03-16T20:49:18.851Z,10.26
2019-03-16T20:51:50.551Z,10.22
2019-03-16T20:54:21.135Z,10.18
2019-03-16T20:56:51.911Z,10.19
2019-03-16T20:59:22.604Z,10.20
2019-03-16T21:01:53.268Z,10.23
2019-03-16T21:04:23.937Z,10.24
2019-03-16T21:06:54.553Z,10.26
2019-03-16T21:09:29.235Z,10.16
2019-03-16T21:12:01.964Z,10.13
2019-03-16T21:14:35.682Z,10.10
2019-03-16T21:17:07.519Z,10.19
2019-03-16T21:19:39.369Z,10.11
2019-03-16T21:22:10.203Z,10.16
2019-03-16T21:24:42.948Z,10.13
2019-03-16T21:27:20.412Z,10.16
2019-03-16T21:29:54.817Z,10.12
2019-03-16T21:32:25.429Z,10.20
2019-03-16T21:34:58.190Z,10.15
2019-03-16T21:37:32.948Z,10.13
2019-03-16T21:40:03.855Z,10.17
2019-03-16T21:42:34.578Z,10.17
2019-03-16T21:45:06.049Z,10.18
2019-03-16T21:47:59.385Z,10.15
2019-03-16T21:50:22.772Z,10.17
2019-03-16T21:52:53.387Z,10.20
2019-03-16T21:55:24.036Z,10.17
2019-03-16T21:57:54.729Z,10.25
2019-03-16T22:00:39.257Z,10.21
2019-03-16T22:03:09.931Z,10.21
2019-03-16T22:05:40.581Z,10.19
2019-03-16T22:08:11.328Z,10.27
2019-03-16T22:10:42.005Z,10.27
2019-03-16T22:13:20.485Z,10.24
2019-03-16T22:15:51.156Z,10.18
2019-03-16T22:18:21.832Z,10.17
2019-03-16T22:20:52.541Z,10.26
2019-03-16T22:23:25.641Z,10.24
2019-03-16T22:26:06.379Z,10.26
2019-03-16T22:28:43.031Z,10.29
2019-03-16T22:31:24.466Z,10.30
2019-03-16T22:34:02.565Z,10.34
2019-03-16T22:36:46.598Z,10.34
2019-03-16T22:39:17.986Z,10.29
2019-03-16T22:41:48.665Z,10.30
2019-03-16T22:44:19.664Z,10.31
2019-03-16T22:46:50.441Z,10.36
2019-03-16T22:49:21.087Z,10.29
2019-03-16T22:51:53.920Z,10.32
2019-03-16T22:54:24.505Z,10.35
2019-03-16T22:56:55.441Z,10.31
2019-03-16T22:59:26.405Z,10.34
2019-03-16T23:02:39.331Z,10.35
2019-03-16T23:05:10.799Z,10.32
2019-03-16T23:07:41.400Z,10.37
2019-03-16T23:10:12.731Z,10.39
2019-03-16T23:12:45.754Z,10.44
2019-03-16T23:15:24.065Z,10.44
2019-03-16T23:17:54.999Z,10.44
2019-03-16T23:20:25.650Z,10.52
2019-03-16T23:22:56.356Z,10.55
2019-03-16T23:25:27.439Z,10.59
2019-03-16T23:27:58.255Z,10.54
2019-03-16T23:30:28.962Z,10.57
2019-03-16T23:33:08.681Z,10.56
2019-03-16T23:35:39.690Z,10.54
2019-03-16T23:38:10.281Z,10.59
2019-03-16T23:40:53.110Z,10.54
2019-03-16T23:43:24.513Z,10.57
2019-03-16T23:45:59.364Z,10.64
2019-03-16T23:48:30.212Z,10.68
2019-03-16T23:51:09.791Z,10.61
2019-03-16T23:53:43.606Z,10.64
2019-03-16T23:56:14.439Z,10.69
2019-03-16T23:58:45.216Z,10.61
